Time;durP1;ratioP1;P1;durP2;ratioP2;P2;SDS_P1;SDS_P2;PMS_P1;PMS_P2;Temp;Humidity;BMP_temperature;BMP_pressure;BME280_temperature;BME280_humidity;BME280_pressure;Samples;Min_cycle;Max_cycle;Signal;HPM_P1;HPM_P2
2021/12/05 00:24:04;;;;;;;6.53;2.55;;;;;;;;;;5026958;28;20112;-67
2021/12/05 00:26:30;;;;;;;6.60;2.05;;;;;;;;;;5029989;28;20120;-67
2021/12/05 00:31:56;;;;;;;4.75;1.70;;;;;;;;;;5030307;28;20647;-68
2021/12/05 00:40:51;;;;;;;10.23;2.40;;;;;;;;;;5027887;28;20451;-67
2021/12/05 00:48:57;;;;;;;4.50;1.77;;;;;;;;;;5045202;28;20036;-67
2021/12/05 00:56:17;;;;;;;6.20;1.77;;;;;;;;;;5039754;28;20418;-68
2021/12/05 01:07:15;;;;;;;4.70;1.85;;;;;;;;;;5047380;28;20053;-68
2021/12/05 01:16:54;;;;;;;7.90;2.05;;;;;;;;;;5046364;28;20029;-67
2021/12/05 01:19:22;;;;;;;5.40;1.63;;;;;;;;;;5044965;28;20498;-67
2021/12/05 01:21:54;;;;;;;7.03;1.80;;;;;;;;;;5040445;28;20034;-68
2021/12/05 01:27:16;;;;;;;3.10;1.27;;;;;;;;;;5048527;28;20087;-67
2021/12/05 01:29:52;;;;;;;3.30;1.85;;;;;;;;;;5033704;28;20116;-67
2021/12/05 01:32:26;;;;;;;3.97;1.63;;;;;;;;;;5031321;28;20045;-67
2021/12/05 01:51:12;;;;;;;4.50;1.42;;;;;;;;;;5036228;28;20128;-68
2021/12/05 01:59:11;;;;;;;5.40;1.33;;;;;;;;;;5047944;28;20040;-67
2021/12/05 02:10:41;;;;;;;4.40;2.50;;;;;;;;;;5048462;28;20082;-67
2021/12/05 02:15:51;;;;;;;4.70;1.30;;;;;;;;;;5047859;28;20076;-67
2021/12/05 02:29:40;;;;;;;4.22;0.98;;;;;;;;;;5050228;28;20083;-67
2021/12/05 02:40:18;;;;;;;3.97;1.80;;;;;;;;;;5048691;28;20103;-67
2021/12/05 02:43:05;;;;;;;3.17;2.00;;;;;;;;;;5048669;28;20060;-67
2021/12/05 02:45:27;;;;;;;6.35;2.03;;;;;;;;;;5041791;28;20033;-67
2021/12/05 02:47:53;;;;;;;2.72;1.90;;;;;;;;;;5043526;28;20040;-67
2021/12/05 02:50:23;;;;;;;5.40;2.03;;;;;;;;;;5046962;28;20047;-67
2021/12/05 02:52:49;;;;;;;5.15;2.00;;;;;;;;;;5034633;28;20410;-67
2021/12/05 02:55:27;;;;;;;4.78;2.20;;;;;;;;;;5048236;28;20041;-68
2021/12/05 02:57:58;;;;;;;6.68;2.83;;;;;;;;;;5046952;28;20079;-67
2021/12/05 03:00:36;;;;;;;4.25;2.22;;;;;;;;;;5048002;28;20143;-67
2021/12/05 03:03:05;;;;;;;5.40;2.10;;;;;;;;;;5043164;28;20028;-68
2021/12/05 03:05:30;;;;;;;4.05;1.90;;;;;;;;;;5048557;28;20037;-67
2021/12/05 03:08:00;;;;;;;4.88;1.98;;;;;;;;;;5047896;28;20571;-68
2021/12/05 03:10:28;;;;;;;4.70;1.85;;;;;;;;;;5028096;28;20099;-68
2021/12/05 03:12:53;;;;;;;3.20;1.65;;;;;;;;;;5048435;28;20071;-67
2021/12/05 03:15:20;;;;;;;6.13;1.40;;;;;;;;;;5048381;28;20056;-67
2021/12/05 03:17:45;;;;;;;4.82;2.00;;;;;;;;;;5043221;28;20083;-68
2021/12/05 03:20:13;;;;;;;3.42;1.73;;;;;;;;;;5030121;28;20056;-68
2021/12/05 03:22:38;;;;;;;3.08;1.80;;;;;;;;;;5027838;28;20036;-68
2021/12/05 03:25:05;;;;;;;6.07;2.00;;;;;;;;;;5046107;28;20124;-68
2021/12/05 03:27:31;;;;;;;5.28;1.90;;;;;;;;;;5047041;28;20040;-68
2021/12/05 03:29:57;;;;;;;5.57;2.33;;;;;;;;;;5038801;28;20041;-67
2021/12/05 03:32:22;;;;;;;5.95;2.15;;;;;;;;;;5029520;28;20128;-68
2021/12/05 03:34:48;;;;;;;7.10;2.60;;;;;;;;;;5042922;28;20037;-68
2021/12/05 03:37:14;;;;;;;8.90;3.72;;;;;;;;;;5042729;28;20491;-68
2021/12/05 03:39:39;;;;;;;7.97;3.90;;;;;;;;;;5047648;28;20033;-68
2021/12/05 03:42:05;;;;;;;10.98;3.70;;;;;;;;;;5047169;28;20060;-68
2021/12/05 03:44:33;;;;;;;13.05;4.25;;;;;;;;;;5031692;28;20406;-68
2021/12/05 03:47:00;;;;;;;11.02;4.90;;;;;;;;;;5047740;28;20116;-67
2021/12/05 03:49:28;;;;;;;10.65;4.05;;;;;;;;;;5046112;28;20033;-68
2021/12/05 03:52:03;;;;;;;13.60;5.35;;;;;;;;;;5047530;28;20055;-68
2021/12/05 03:54:29;;;;;;;14.23;4.75;;;;;;;;;;5031927;28;20128;-68
2021/12/05 03:56:56;;;;;;;8.32;4.38;;;;;;;;;;5026501;28;20112;-68
2021/12/05 03:59:24;;;;;;;14.20;5.28;;;;;;;;;;5043027;28;20040;-68
2021/12/05 04:01:49;;;;;;;12.80;5.20;;;;;;;;;;5029400;28;20071;-68
2021/12/05 04:04:17;;;;;;;12.43;5.40;;;;;;;;;;5030902;28;20041;-68
2021/12/05 04:06:44;;;;;;;17.27;5.85;;;;;;;;;;5030937;28;20033;-68
2021/12/05 04:09:11;;;;;;;9.88;4.97;;;;;;;;;;5045460;28;20048;-68
2021/12/05 04:11:43;;;;;;;9.07;4.65;;;;;;;;;;5050169;28;20033;-68
2021/12/05 04:14:11;;;;;;;8.98;4.10;;;;;;;;;;5044764;28;20542;-68
2021/12/05 04:16:38;;;;;;;8.30;4.30;;;;;;;;;;5051974;28;20094;-68
2021/12/05 04:19:05;;;;;;;10.43;3.78;;;;;;;;;;5049878;28;20040;-68
2021/12/05 04:21:31;;;;;;;8.57;3.58;;;;;;;;;;5046922;28;20033;-68
2021/12/05 04:23:58;;;;;;;6.18;3.25;;;;;;;;;;5030058;28;20065;-67
2021/12/05 04:26:25;;;;;;;9.80;3.50;;;;;;;;;;5048975;28;20036;-68
2021/12/05 04:28:51;;;;;;;6.18;2.80;;;;;;;;;;5048968;28;20132;-67
2021/12/05 04:31:20;;;;;;;5.22;3.05;;;;;;;;;;5048391;28;20112;-68
2021/12/05 04:33:45;;;;;;;7.95;3.30;;;;;;;;;;5048603;28;20048;-68
2021/12/05 04:36:11;;;;;;;9.50;3.10;;;;;;;;;;5031587;28;20037;-67
2021/12/05 04:38:36;;;;;;;7.88;2.90;;;;;;;;;;5049051;28;20490;-67
2021/12/05 04:41:02;;;;;;;10.30;3.40;;;;;;;;;;5047090;28;20087;-67
2021/12/05 04:43:36;;;;;;;6.90;2.95;;;;;;;;;;5049373;28;20060;-68
2021/12/05 04:46:01;;;;;;;8.38;2.25;;;;;;;;;;5044437;28;20115;-68
2021/12/05 04:48:27;;;;;;;6.18;3.17;;;;;;;;;;5049607;28;20132;-67
2021/12/05 04:50:52;;;;;;;5.57;3.00;;;;;;;;;;5048717;28;20059;-67
2021/12/05 04:53:17;;;;;;;5.95;2.85;;;;;;;;;;5048832;28;20032;-67
2021/12/05 04:55:43;;;;;;;6.75;3.15;;;;;;;;;;5030801;28;20079;-67
2021/12/05 04:58:08;;;;;;;8.50;2.92;;;;;;;;;;5047678;28;20041;-68
2021/12/05 05:00:41;;;;;;;4.90;2.92;;;;;;;;;;5052080;28;20033;-68
2021/12/05 05:03:08;;;;;;;6.30;2.50;;;;;;;;;;5045677;28;20037;-68
2021/12/05 05:05:34;;;;;;;6.05;2.78;;;;;;;;;;5051687;28;20025;-68
2021/12/05 05:08:00;;;;;;;5.40;3.05;;;;;;;;;;5051953;28;20037;-68
2021/12/05 05:10:29;;;;;;;6.50;2.72;;;;;;;;;;5050784;28;20042;-68
2021/12/05 05:12:54;;;;;;;6.88;3.22;;;;;;;;;;5049795;28;20051;-67
2021/12/05 05:15:24;;;;;;;9.15;3.10;;;;;;;;;;5028781;28;20037;-67
2021/12/05 05:17:52;;;;;;;5.65;3.08;;;;;;;;;;5051481;28;20033;-67
2021/12/05 05:20:27;;;;;;;7.07;3.65;;;;;;;;;;5051321;28;20098;-68
2021/12/05 05:47:03;;;;;;;11.38;3.80;;;;;;;;;;5040526;28;20038;-67
2021/12/05 05:49:53;;;;;;;8.40;4.35;;;;;;;;;;5026846;28;20058;-67
2021/12/05 05:52:19;;;;;;;8.98;3.85;;;;;;;;;;5030157;28;20087;-68
2021/12/05 05:54:47;;;;;;;10.85;4.03;;;;;;;;;;5017379;28;20034;-67
2021/12/05 05:57:41;;;;;;;8.35;4.15;;;;;;;;;;5030702;28;20486;-67
2021/12/05 06:00:14;;;;;;;6.80;4.13;;;;;;;;;;5041404;28;20407;-67
2021/12/05 06:05:24;;;;;;;8.68;3.42;;;;;;;;;;5045290;28;20083;-67
2021/12/05 06:07:50;;;;;;;11.55;3.50;;;;;;;;;;5031499;28;20037;-67
2021/12/05 06:10:22;;;;;;;7.63;3.17;;;;;;;;;;5028856;28;20558;-67
2021/12/05 06:12:49;;;;;;;8.02;3.53;;;;;;;;;;5031208;28;20546;-67
2021/12/05 06:15:17;;;;;;;7.32;3.00;;;;;;;;;;5035881;28;20114;-68
2021/12/05 06:17:44;;;;;;;5.97;3.20;;;;;;;;;;5041707;28;20025;-68
2021/12/05 06:20:12;;;;;;;8.77;3.45;;;;;;;;;;5030955;28;20032;-67
2021/12/05 06:22:38;;;;;;;11.40;3.42;;;;;;;;;;5030382;28;20037;-67
2021/12/05 06:25:06;;;;;;;6.25;2.85;;;;;;;;;;5033299;28;20083;-67
2021/12/05 06:27:32;;;;;;;7.05;2.92;;;;;;;;;;5030524;28;20043;-67
2021/12/05 06:30:08;;;;;;;5.50;2.72;;;;;;;;;;5029932;28;20112;-67
2021/12/05 06:38:56;;;;;;;5.82;2.72;;;;;;;;;;5014893;28;20060;-67
2021/12/05 06:41:00;;;;;;;7.57;2.80;;;;;;;;;;5025389;28;20057;-67
2021/12/05 06:46:06;;;;;;;16.95;6.28;;;;;;;;;;5025788;28;20038;-67
2021/12/05 06:48:31;;;;;;;11.32;4.00;;;;;;;;;;5034533;28;20112;-67
2021/12/05 06:50:57;;;;;;;7.50;3.17;;;;;;;;;;5014167;28;20602;-68
2021/12/05 06:53:22;;;;;;;4.88;2.80;;;;;;;;;;5028443;28;20025;-67
2021/12/05 06:55:48;;;;;;;5.88;2.60;;;;;;;;;;5012773;28;20040;-68
2021/12/05 06:58:13;;;;;;;8.95;3.40;;;;;;;;;;5027767;28;20041;-68
2021/12/05 07:00:39;;;;;;;6.50;2.78;;;;;;;;;;5036974;28;20082;-67
2021/12/05 07:03:07;;;;;;;9.48;3.75;;;;;;;;;;5030609;28;20087;-67
2021/12/05 07:07:57;;;;;;;7.82;2.95;;;;;;;;;;5029568;28;20030;-67
2021/12/05 07:10:24;;;;;;;8.82;2.92;;;;;;;;;;5030002;28;20045;-67
2021/12/05 07:21:11;;;;;;;8.38;3.50;;;;;;;;;;5030164;28;20024;-67
2021/12/05 07:26:08;;;;;;;4.82;3.13;;;;;;;;;;5021857;28;20063;-68
2021/12/05 07:42:22;;;;;;;6.13;2.97;;;;;;;;;;5040634;28;20128;-68
2021/12/05 07:44:47;;;;;;;9.98;3.35;;;;;;;;;;5029119;28;20040;-68
2021/12/05 07:47:18;;;;;;;6.65;3.30;;;;;;;;;;5049551;28;20020;-68
2021/12/05 07:49:43;;;;;;;6.45;3.70;;;;;;;;;;5029304;28;20065;-68
2021/12/05 07:52:09;;;;;;;7.55;3.40;;;;;;;;;;5048982;28;20616;-68
2021/12/05 07:54:41;;;;;;;7.65;3.25;;;;;;;;;;5044026;28;20406;-68
2021/12/05 08:15:58;;;;;;;8.88;3.88;;;;;;;;;;5046907;28;20528;-67
2021/12/05 08:18:24;;;;;;;9.85;4.05;;;;;;;;;;5046053;28;20048;-67
2021/12/05 08:20:49;;;;;;;8.00;3.90;;;;;;;;;;5042092;28;20029;-68
2021/12/05 08:23:16;;;;;;;7.63;3.90;;;;;;;;;;5045777;28;20444;-68
2021/12/05 08:25:48;;;;;;;8.13;3.95;;;;;;;;;;5045455;28;20079;-68
2021/12/05 08:30:40;;;;;;;6.43;3.53;;;;;;;;;;5047206;28;20102;-67
2021/12/05 08:33:35;;;;;;;6.95;3.20;;;;;;;;;;5031795;28;20498;-68
2021/12/05 09:20:17;;;;;;;7.20;3.60;;;;;;;;;;5023318;28;19909;-68
2021/12/05 09:25:41;;;;;;;21.92;7.88;;;;;;;;;;5042388;28;20087;-67
2021/12/05 09:31:00;;;;;;;12.50;5.97;;;;;;;;;;5044591;28;20040;-67
2021/12/05 09:38:48;;;;;;;8.85;4.45;;;;;;;;;;5038036;28;20112;-67
2021/12/05 10:01:53;;;;;;;11.20;5.20;;;;;;;;;;5043129;28;20102;-67
2021/12/05 10:06:55;;;;;;;9.07;4.47;;;;;;;;;;5045352;28;20414;-66
2021/12/05 10:34:11;;;;;;;8.60;4.57;;;;;;;;;;5043556;28;20532;-67
2021/12/05 10:36:39;;;;;;;9.00;4.30;;;;;;;;;;5046444;28;20049;-67
2021/12/05 10:39:10;;;;;;;7.80;4.03;;;;;;;;;;5045412;28;20056;-68
2021/12/05 10:44:09;;;;;;;8.55;4.18;;;;;;;;;;5030182;28;20061;-68
2021/12/05 10:46:36;;;;;;;7.97;3.75;;;;;;;;;;5028939;28;20042;-68
2021/12/05 10:49:11;;;;;;;11.88;4.38;;;;;;;;;;5030081;28;20545;-68
2021/12/05 10:51:38;;;;;;;10.75;4.03;;;;;;;;;;5035110;28;20046;-68
2021/12/05 10:54:09;;;;;;;7.57;4.15;;;;;;;;;;5030690;28;20068;-68
2021/12/05 10:56:51;;;;;;;10.65;4.18;;;;;;;;;;5012512;28;20502;-69
2021/12/05 10:59:35;;;;;;;7.47;3.65;;;;;;;;;;5036187;28;20076;-68
2021/12/05 11:02:04;;;;;;;9.73;3.75;;;;;;;;;;5022555;28;20573;-68
2021/12/05 11:04:30;;;;;;;11.73;4.68;;;;;;;;;;5011783;28;20498;-68
2021/12/05 11:07:06;;;;;;;10.57;4.07;;;;;;;;;;5022436;28;20123;-68
2021/12/05 11:09:39;;;;;;;7.30;3.58;;;;;;;;;;5032515;28;20045;-68
2021/12/05 11:12:12;;;;;;;7.40;3.42;;;;;;;;;;5033118;28;20049;-68
2021/12/05 11:14:42;;;;;;;10.93;3.30;;;;;;;;;;5020204;28;20447;-68
2021/12/05 11:17:13;;;;;;;7.30;3.15;;;;;;;;;;5025682;28;20690;-70
2021/12/05 11:19:44;;;;;;;10.10;3.58;;;;;;;;;;5026613;28;20049;-70
2021/12/05 11:22:20;;;;;;;9.40;4.20;;;;;;;;;;5027848;28;20117;-68
2021/12/05 11:24:53;;;;;;;7.95;4.00;;;;;;;;;;5029003;28;20044;-68
2021/12/05 11:27:41;;;;;;;12.40;4.45;;;;;;;;;;5026832;28;20038;-68
2021/12/05 11:30:18;;;;;;;6.63;3.67;;;;;;;;;;5028169;28;20434;-68
2021/12/05 11:32:47;;;;;;;5.32;3.00;;;;;;;;;;5006299;28;20124;-68
2021/12/05 11:35:38;;;;;;;7.13;3.65;;;;;;;;;;5027881;28;20025;-68
2021/12/05 11:38:13;;;;;;;9.25;3.72;;;;;;;;;;5029106;28;20041;-69
2021/12/05 11:41:02;;;;;;;8.13;3.72;;;;;;;;;;5024648;28;20136;-69
2021/12/05 11:43:35;;;;;;;5.95;3.35;;;;;;;;;;5000192;28;20063;-69
2021/12/05 11:46:06;;;;;;;;;;;;;;;;;;5024440;28;20093;-69
2021/12/05 11:48:34;;;;;;;6.68;3.72;;;;;;;;;;5003846;28;19921;-69
2021/12/05 11:51:02;;;;;;;6.03;3.80;;;;;;;;;;5021374;28;20116;-69
2021/12/05 11:53:48;;;;;;;8.25;3.72;;;;;;;;;;5019686;28;20025;-68
2021/12/05 11:56:22;;;;;;;8.30;4.20;;;;;;;;;;5038231;28;20034;-68
2021/12/05 11:59:09;;;;;;;7.93;3.95;;;;;;;;;;5023541;28;20558;-68
2021/12/05 12:01:41;;;;;;;8.05;4.05;;;;;;;;;;5014164;28;20069;-68
2021/12/05 12:04:10;;;;;;;7.30;4.20;;;;;;;;;;5034575;28;20044;-68
2021/12/05 12:06:35;;;;;;;9.13;3.85;;;;;;;;;;5039556;28;20029;-68
2021/12/05 12:09:02;;;;;;;7.70;4.05;;;;;;;;;;5030663;28;20021;-68
2021/12/05 12:11:27;;;;;;;7.72;3.92;;;;;;;;;;5023942;28;20029;-68
2021/12/05 12:13:56;;;;;;;8.10;3.78;;;;;;;;;;5020899;28;20603;-68
2021/12/05 12:16:22;;;;;;;9.23;4.45;;;;;;;;;;5024645;28;20049;-68
2021/12/05 12:18:50;;;;;;;8.73;3.65;;;;;;;;;;5024724;28;20063;-68
2021/12/05 12:21:18;;;;;;;7.53;3.78;;;;;;;;;;5013914;28;20030;-68
2021/12/05 12:23:44;;;;;;;10.48;4.13;;;;;;;;;;5009952;28;20049;-68
2021/12/05 12:26:10;;;;;;;7.15;3.50;;;;;;;;;;5034980;28;20021;-68
2021/12/05 12:28:37;;;;;;;7.93;3.75;;;;;;;;;;5020537;28;20041;-68
2021/12/05 12:31:08;;;;;;;7.63;3.78;;;;;;;;;;5019366;28;20044;-68
2021/12/05 12:33:41;;;;;;;7.53;3.83;;;;;;;;;;5015316;28;20041;-68
2021/12/05 12:36:06;;;;;;;;;;;;;;;;;;5028280;28;20033;-68
2021/12/05 12:38:44;;;;;;;7.20;3.83;;;;;;;;;;5014461;28;19928;-68
2021/12/05 12:41:19;;;;;;;7.22;3.55;;;;;;;;;;5025139;28;20081;-68
2021/12/05 12:43:53;;;;;;;5.47;3.25;;;;;;;;;;5047873;28;20572;-68
2021/12/05 12:46:31;;;;;;;7.07;3.55;;;;;;;;;;5044620;28;20191;-68
2021/12/05 12:49:15;;;;;;;7.78;3.72;;;;;;;;;;5047011;28;20025;-68
2021/12/05 12:51:42;;;;;;;8.85;4.03;;;;;;;;;;5042827;28;20059;-67
2021/12/05 12:54:26;;;;;;;9.20;4.25;;;;;;;;;;5044312;28;20052;-68
2021/12/05 12:57:06;;;;;;;7.30;3.83;;;;;;;;;;5028108;28;20037;-69
2021/12/05 12:59:35;;;;;;;9.25;4.05;;;;;;;;;;5049003;28;20033;-68
2021/12/05 13:10:43;;;;;;;8.70;4.10;;;;;;;;;;5042919;28;20052;-68
2021/12/05 13:13:15;;;;;;;6.85;3.60;;;;;;;;;;5041854;28;20044;-68
2021/12/05 13:15:52;;;;;;;9.55;3.70;;;;;;;;;;5037755;28;20076;-65
2021/12/05 13:18:30;;;;;;;8.15;3.45;;;;;;;;;;5044102;28;20162;-67
2021/12/05 13:21:12;;;;;;;8.70;4.03;;;;;;;;;;5045964;28;20033;-68
2021/12/05 13:23:42;;;;;;;8.95;4.00;;;;;;;;;;5043118;28;20029;-69
2021/12/05 13:26:19;;;;;;;7.82;4.30;;;;;;;;;;5044993;28;20041;-68
2021/12/05 13:28:54;;;;;;;10.68;4.28;;;;;;;;;;5042762;28;20040;-68
2021/12/05 13:31:29;;;;;;;9.93;4.22;;;;;;;;;;5041452;28;20542;-68
2021/12/05 13:34:31;;;;;;;11.25;4.85;;;;;;;;;;5042710;28;20566;-69
2021/12/05 13:37:06;;;;;;;12.48;4.47;;;;;;;;;;5036224;28;20060;-68
2021/12/05 13:39:47;;;;;;;9.15;3.70;;;;;;;;;;5047276;28;20044;-68
2021/12/05 13:42:36;;;;;;;13.18;5.03;;;;;;;;;;5042042;28;20037;-69
2021/12/05 13:45:25;;;;;;;9.48;4.03;;;;;;;;;;5020181;28;20029;-68
2021/12/05 13:47:50;;;;;;;9.27;4.05;;;;;;;;;;5035019;28;20033;-69
2021/12/05 13:50:16;;;;;;;13.88;4.40;;;;;;;;;;5032418;28;20486;-69
2021/12/05 13:52:42;;;;;;;11.85;4.90;;;;;;;;;;5041174;28;20036;-68
2021/12/05 13:55:36;;;;;;;10.25;4.10;;;;;;;;;;5016051;28;20081;-68
2021/12/05 13:58:22;;;;;;;10.68;4.63;;;;;;;;;;5032524;28;20057;-68
2021/12/05 14:01:03;;;;;;;8.65;4.53;;;;;;;;;;5038413;28;20056;-69
2021/12/05 14:03:53;;;;;;;12.98;4.78;;;;;;;;;;5026465;28;20518;-68
2021/12/05 14:06:43;;;;;;;10.10;4.07;;;;;;;;;;5045051;28;20045;-68
2021/12/05 14:09:20;;;;;;;9.02;3.88;;;;;;;;;;5023762;28;21057;-68
2021/12/05 14:11:54;;;;;;;9.10;4.65;;;;;;;;;;4988378;28;20034;-68
2021/12/05 14:14:23;;;;;;;10.30;4.25;;;;;;;;;;4985035;28;20124;-68
2021/12/05 14:16:50;;;;;;;10.02;4.05;;;;;;;;;;4985465;28;20077;-68
2021/12/05 14:19:19;;;;;;;8.65;4.05;;;;;;;;;;4979612;28;20042;-68
2021/12/05 14:21:47;;;;;;;10.10;4.07;;;;;;;;;;5010100;28;20553;-68
2021/12/05 14:24:14;;;;;;;9.43;3.75;;;;;;;;;;5004260;28;20048;-67
2021/12/05 14:26:40;;;;;;;7.78;3.95;;;;;;;;;;5007808;28;20037;-68
2021/12/05 14:29:11;;;;;;;11.00;4.05;;;;;;;;;;5018280;28;20441;-68
2021/12/05 14:31:40;;;;;;;9.45;4.20;;;;;;;;;;5011267;28;20813;-68
2021/12/05 14:34:09;;;;;;;9.18;4.15;;;;;;;;;;5019866;28;20126;-68
2021/12/05 14:36:39;;;;;;;7.90;4.00;;;;;;;;;;5025329;28;20052;-68
2021/12/05 14:39:20;;;;;;;8.27;3.92;;;;;;;;;;5020267;28;20056;-68
2021/12/05 14:41:49;;;;;;;7.53;4.18;;;;;;;;;;5016072;28;20191;-68
2021/12/05 14:44:15;;;;;;;11.38;4.15;;;;;;;;;;5001700;28;20033;-68
2021/12/05 14:47:09;;;;;;;10.55;4.85;;;;;;;;;;5006452;28;20121;-68
2021/12/05 14:49:38;;;;;;;;;;;;;;;;;;5009787;28;20275;-69
2021/12/05 14:52:07;;;;;;;10.18;4.18;;;;;;;;;;5002537;28;20050;-68
2021/12/05 14:54:35;;;;;;;11.02;4.93;;;;;;;;;;5001274;28;20042;-68
2021/12/05 14:57:05;;;;;;;10.18;5.05;;;;;;;;;;5004228;28;20032;-67
2021/12/05 14:59:31;;;;;;;12.77;5.40;;;;;;;;;;5004814;28;20037;-66
2021/12/05 15:01:57;;;;;;;11.10;5.18;;;;;;;;;;5011792;28;20588;-68
2021/12/05 15:04:43;;;;;;;10.18;4.78;;;;;;;;;;5008590;28;20049;-68
2021/12/05 15:07:11;;;;;;;11.85;4.57;;;;;;;;;;4994126;28;20042;-69
2021/12/05 15:09:43;;;;;;;11.32;5.35;;;;;;;;;;5007125;28;20037;-68
2021/12/05 15:12:10;;;;;;;12.82;5.65;;;;;;;;;;5009789;28;20057;-68
2021/12/05 15:14:40;;;;;;;11.25;6.03;;;;;;;;;;5004936;28;20026;-68
2021/12/05 15:17:20;;;;;;;10.00;5.18;;;;;;;;;;5001796;28;20041;-69
2021/12/05 15:19:49;;;;;;;11.27;5.68;;;;;;;;;;4987234;28;20092;-69
2021/12/05 15:22:16;;;;;;;11.27;4.25;;;;;;;;;;5012158;28;20045;-69
2021/12/05 15:24:50;;;;;;;13.02;5.43;;;;;;;;;;5010932;28;20045;-70
2021/12/05 15:27:17;;;;;;;12.25;5.55;;;;;;;;;;5012551;28;20120;-70
2021/12/05 15:29:49;;;;;;;9.18;5.15;;;;;;;;;;5007510;28;20047;-69
2021/12/05 15:32:21;;;;;;;12.23;5.22;;;;;;;;;;4997765;28;20041;-70
2021/12/05 15:34:50;;;;;;;8.63;4.13;;;;;;;;;;5006928;28;20052;-70
2021/12/05 15:37:15;;;;;;;11.15;4.50;;;;;;;;;;4998069;28;20148;-70
2021/12/05 15:39:44;;;;;;;8.55;4.43;;;;;;;;;;5001139;28;20160;-69
2021/12/05 15:42:20;;;;;;;9.30;4.95;;;;;;;;;;5010712;28;20095;-69
2021/12/05 15:44:47;;;;;;;8.65;4.63;;;;;;;;;;5019712;28;20037;-69
2021/12/05 15:47:26;;;;;;;10.07;5.03;;;;;;;;;;5004137;28;20111;-68
2021/12/05 15:50:00;;;;;;;11.23;5.75;;;;;;;;;;5016773;28;20128;-70
2021/12/05 15:52:29;;;;;;;11.48;6.30;;;;;;;;;;5004028;28;20271;-67
2021/12/05 15:54:56;;;;;;;15.60;8.00;;;;;;;;;;5016770;28;20518;-69
2021/12/05 15:57:36;;;;;;;22.33;8.75;;;;;;;;;;5017628;28;20037;-70
2021/12/05 16:00:10;;;;;;;16.67;7.93;;;;;;;;;;5005837;28;20814;-70
2021/12/05 16:02:35;;;;;;;15.27;6.93;;;;;;;;;;5019349;28;20025;-69
2021/12/05 16:05:01;;;;;;;13.43;6.70;;;;;;;;;;5015750;28;20034;-72
2021/12/05 16:07:29;;;;;;;14.10;6.72;;;;;;;;;;5003637;28;20030;-70
2021/12/05 16:10:11;;;;;;;13.52;7.15;;;;;;;;;;5012321;28;20564;-69
2021/12/05 16:12:38;;;;;;;13.70;6.22;;;;;;;;;;5018203;28;20038;-70
2021/12/05 16:15:04;;;;;;;12.38;6.53;;;;;;;;;;5017195;28;20045;-69
2021/12/05 16:17:30;;;;;;;20.30;7.75;;;;;;;;;;5019791;28;20087;-68
2021/12/05 16:20:14;;;;;;;18.92;8.55;;;;;;;;;;5022379;28;20076;-68
2021/12/05 16:22:58;;;;;;;;;;;;;;;;;;5014597;28;20184;-68
2021/12/05 16:25:24;;;;;;;23.95;9.10;;;;;;;;;;5013734;28;20850;-68
2021/12/05 16:28:01;;;;;;;23.73;11.40;;;;;;;;;;5007855;28;20587;-69
2021/12/05 16:30:32;;;;;;;25.25;11.18;;;;;;;;;;5020079;28;20124;-68
2021/12/05 16:32:57;;;;;;;22.85;10.30;;;;;;;;;;5021123;28;20116;-69
2021/12/05 16:35:28;;;;;;;23.15;10.00;;;;;;;;;;5018586;28;20116;-67
2021/12/05 16:37:54;;;;;;;26.83;11.75;;;;;;;;;;5018743;28;20076;-67
2021/12/05 16:40:20;;;;;;;26.20;11.77;;;;;;;;;;5018234;28;20051;-68
2021/12/05 16:42:46;;;;;;;24.27;11.35;;;;;;;;;;5017761;28;20048;-68
2021/12/05 16:45:12;;;;;;;23.75;10.38;;;;;;;;;;5019059;28;20042;-71
2021/12/05 16:47:38;;;;;;;29.58;13.75;;;;;;;;;;5017325;28;20033;-71
2021/12/05 16:50:07;;;;;;;32.78;14.00;;;;;;;;;;5003765;28;20178;-68
2021/12/05 16:52:37;;;;;;;24.02;9.52;;;;;;;;;;5016248;28;20099;-70
2021/12/05 16:55:16;;;;;;;23.33;10.32;;;;;;;;;;5019738;28;20041;-69
2021/12/05 16:57:52;;;;;;;21.40;10.35;;;;;;;;;;5021448;28;20367;-69
2021/12/05 17:00:22;;;;;;;24.75;11.32;;;;;;;;;;5020440;28;20131;-69
2021/12/05 17:02:56;;;;;;;32.80;14.02;;;;;;;;;;5023343;28;20442;-68
2021/12/05 17:05:28;;;;;;;28.38;12.80;;;;;;;;;;5022684;28;20044;-70
2021/12/05 17:10:54;;;;;;;28.45;11.82;;;;;;;;;;5017608;28;20041;-69
2021/12/05 17:13:27;;;;;;;26.27;11.88;;;;;;;;;;5022659;28;20594;-70
2021/12/05 17:15:58;;;;;;;26.63;12.57;;;;;;;;;;5005188;28;20414;-69
2021/12/05 17:18:25;;;;;;;29.52;12.55;;;;;;;;;;5017189;28;20753;-70
2021/12/05 17:21:01;;;;;;;30.13;12.18;;;;;;;;;;5018054;28;20041;-70
2021/12/05 17:23:38;;;;;;;28.75;13.55;;;;;;;;;;5019873;28;20138;-70
2021/12/05 17:26:15;;;;;;;26.73;11.85;;;;;;;;;;5019120;28;20459;-70
2021/12/05 17:28:47;;;;;;;29.02;11.35;;;;;;;;;;5026105;28;20045;-70
2021/12/05 17:31:16;;;;;;;27.17;11.95;;;;;;;;;;5019529;28;20478;-70
2021/12/05 17:33:52;;;;;;;29.52;12.57;;;;;;;;;;5023474;28;20914;-70
2021/12/05 17:36:17;;;;;;;28.92;14.25;;;;;;;;;;5019491;28;20041;-70
2021/12/05 17:38:43;;;;;;;34.13;14.90;;;;;;;;;;5021204;28;20029;-67
2021/12/05 17:41:08;;;;;;;34.03;15.52;;;;;;;;;;5022311;28;20120;-70
2021/12/05 17:43:34;;;;;;;36.15;16.92;;;;;;;;;;5004396;28;20053;-71
2021/12/05 17:45:59;;;;;;;41.40;17.23;;;;;;;;;;4990947;28;20511;-70
2021/12/05 17:48:25;;;;;;;27.13;13.63;;;;;;;;;;5000013;28;20212;-70
2021/12/05 17:50:53;;;;;;;24.27;10.85;;;;;;;;;;5006104;28;20033;-69
2021/12/05 17:53:20;;;;;;;17.30;8.63;;;;;;;;;;5006361;28;20129;-73
2021/12/05 17:55:48;;;;;;;25.90;11.45;;;;;;;;;;4999496;28;20523;-70
2021/12/05 17:58:33;;;;;;;32.88;11.77;;;;;;;;;;5001010;28;20038;-71
2021/12/05 18:02:41;;;;;;;40.42;12.32;;;;;;;;;;5008713;28;20037;-71
2021/12/05 18:03:45;;;;;;;24.55;10.50;;;;;;;;;;5015838;28;20396;-71
2021/12/05 18:06:11;;;;;;;17.35;8.50;;;;;;;;;;5010432;28;20041;-70
2021/12/05 18:08:36;;;;;;;16.30;8.02;;;;;;;;;;5014602;28;20033;-71
2021/12/05 18:11:08;;;;;;;18.38;8.38;;;;;;;;;;5017265;28;20045;-70
2021/12/05 18:13:36;;;;;;;32.22;13.68;;;;;;;;;;4986687;28;20196;-71
2021/12/05 18:16:12;;;;;;;30.02;12.18;;;;;;;;;;4999088;28;20285;-71
2021/12/05 18:18:39;;;;;;;27.92;11.82;;;;;;;;;;4985072;28;20486;-71
2021/12/05 18:21:08;;;;;;;39.40;13.25;;;;;;;;;;5010314;28;20053;-71
2021/12/05 18:23:36;;;;;;;29.73;11.10;;;;;;;;;;4991788;28;20040;-71
2021/12/05 18:26:02;;;;;;;34.67;13.68;;;;;;;;;;5006270;28;20049;-72
2021/12/05 18:28:29;;;;;;;25.55;11.80;;;;;;;;;;5007624;28;20034;-71
2021/12/05 18:30:56;;;;;;;30.35;12.32;;;;;;;;;;5013921;28;20088;-71
2021/12/05 18:33:25;;;;;;;25.08;11.93;;;;;;;;;;5008793;28;20058;-71
2021/12/05 18:35:51;;;;;;;21.35;10.70;;;;;;;;;;5011172;28;20474;-71
2021/12/05 18:38:21;;;;;;;20.27;9.40;;;;;;;;;;5016201;28;20116;-71
2021/12/05 18:40:49;;;;;;;19.15;8.48;;;;;;;;;;5001836;28;20048;-71
2021/12/05 18:43:16;;;;;;;30.23;10.95;;;;;;;;;;5008026;28;20084;-71
2021/12/05 18:45:43;;;;;;;24.13;9.98;;;;;;;;;;4994259;28;20056;-71
2021/12/05 18:48:09;;;;;;;21.23;9.60;;;;;;;;;;5004060;28;20037;-72
2021/12/05 18:50:36;;;;;;;23.38;10.63;;;;;;;;;;4990640;28;20053;-72
2021/12/05 18:53:02;;;;;;;23.90;10.57;;;;;;;;;;5009245;28;20034;-70
2021/12/05 18:55:32;;;;;;;24.70;11.73;;;;;;;;;;4984689;28;20050;-71
2021/12/05 18:58:01;;;;;;;34.28;14.77;;;;;;;;;;5001936;28;20057;-71
2021/12/05 19:00:32;;;;;;;28.88;13.85;;;;;;;;;;5004213;28;20719;-70
2021/12/05 19:05:51;;;;;;;31.08;15.40;;;;;;;;;;5007411;28;20053;-69
2021/12/05 19:08:33;;;;;;;26.85;13.88;;;;;;;;;;5005782;28;20045;-70
2021/12/05 19:13:44;;;;;;;22.15;11.45;;;;;;;;;;5004618;28;20120;-70
2021/12/05 19:16:10;;;;;;;24.75;12.20;;;;;;;;;;4971957;28;20598;-69
2021/12/05 19:18:35;;;;;;;38.55;15.55;;;;;;;;;;4982624;28;20133;-69
2021/12/05 19:21:02;;;;;;;26.75;13.38;;;;;;;;;;5003056;28;20136;-69
2021/12/05 19:23:27;;;;;;;28.50;13.68;;;;;;;;;;5001947;28;20491;-69
2021/12/05 19:25:53;;;;;;;21.92;11.18;;;;;;;;;;4993102;28;20057;-69
2021/12/05 19:28:18;;;;;;;22.85;10.50;;;;;;;;;;5001418;28;20511;-69
2021/12/05 19:30:50;;;;;;;19.92;9.88;;;;;;;;;;5003239;28;20085;-69
2021/12/05 19:33:18;;;;;;;22.10;11.35;;;;;;;;;;4997505;28;20072;-69
2021/12/05 19:35:44;;;;;;;18.90;8.90;;;;;;;;;;5001900;28;20487;-70
2021/12/05 19:38:11;;;;;;;16.65;7.88;;;;;;;;;;5000120;28;20045;-69
2021/12/05 19:40:37;;;;;;;17.50;8.40;;;;;;;;;;5003766;28;20069;-69
2021/12/05 19:43:05;;;;;;;20.55;9.40;;;;;;;;;;5004455;28;20050;-69
2021/12/05 19:45:32;;;;;;;18.08;7.68;;;;;;;;;;4985003;28;20077;-70
2021/12/05 19:47:59;;;;;;;20.10;9.02;;;;;;;;;;5005434;28;20136;-69
2021/12/05 19:50:29;;;;;;;19.20;9.35;;;;;;;;;;4998210;28;20079;-69
2021/12/05 19:52:55;;;;;;;20.95;9.70;;;;;;;;;;5003942;28;20046;-69
2021/12/05 19:55:22;;;;;;;18.58;9.38;;;;;;;;;;4986261;28;20037;-69
2021/12/05 19:57:48;;;;;;;23.95;10.38;;;;;;;;;;4998086;28;20088;-69
2021/12/05 20:00:22;;;;;;;23.13;10.75;;;;;;;;;;5002226;28;20042;-69
2021/12/05 20:02:48;;;;;;;20.65;10.40;;;;;;;;;;5000359;28;20042;-69
2021/12/05 20:05:19;;;;;;;25.40;11.85;;;;;;;;;;4996507;28;20038;-69
2021/12/05 20:07:46;;;;;;;29.33;13.95;;;;;;;;;;4987038;28;20042;-69
2021/12/05 20:10:14;;;;;;;43.13;18.05;;;;;;;;;;5002233;28;20107;-69
2021/12/05 20:12:43;;;;;;;37.33;16.83;;;;;;;;;;4982336;28;20088;-69
2021/12/05 20:15:09;;;;;;;38.67;17.58;;;;;;;;;;4998984;28;20048;-69